Time;durP1;ratioP1;P1;durP2;ratioP2;P2;SDS_P1;SDS_P2;PMS_P1;PMS_P2;Temp;Humidity;BMP_temperature;BMP_pressure;BME280_temperature;BME280_humidity;BME280_pressure;Samples;Min_cycle;Max_cycle;Signal;HPM_P1;HPM_P2
2022/11/20 00:01:06;;;;;;;16.63;10.20;;;-1.90;99.90;;;;;;5114923;27;20100;-66
2022/11/20 00:03:31;;;;;;;16.52;10.90;;;-1.90;99.90;;;;;;5115386;27;20572;-66
2022/11/20 00:06:05;;;;;;;18.63;11.80;;;-1.90;99.90;;;;;;5115464;27;20091;-67
2022/11/20 00:08:31;;;;;;;22.63;12.68;;;-1.90;99.90;;;;;;5115405;27;20441;-67
2022/11/20 00:11:02;;;;;;;15.88;10.90;;;-1.90;99.90;;;;;;5115147;27;20428;-67
2022/11/20 00:13:27;;;;;;;16.67;11.13;;;-1.90;99.90;;;;;;5115073;27;20047;-67
2022/11/20 00:16:01;;;;;;;16.45;10.57;;;-1.90;99.90;;;;;;5115166;27;20054;-68
2022/11/20 00:18:27;;;;;;;15.65;10.07;;;-1.90;99.90;;;;;;5114850;27;20072;-67
2022/11/20 00:20:53;;;;;;;16.55;10.15;;;-1.90;99.90;;;;;;5115090;27;20481;-67
2022/11/20 00:23:19;;;;;;;15.23;9.38;;;-1.90;99.90;;;;;;5114767;27;20039;-66
2022/11/20 00:25:45;;;;;;;21.55;12.80;;;-1.90;99.90;;;;;;5114855;27;20035;-67
2022/11/20 00:28:11;;;;;;;20.58;13.27;;;-1.90;99.90;;;;;;5114975;27;20031;-67
2022/11/20 00:30:36;;;;;;;22.95;15.95;;;-2.00;99.90;;;;;;5114823;27;20035;-67
2022/11/20 00:33:02;;;;;;;24.27;14.95;;;-2.00;99.90;;;;;;5114772;27;20035;-67
2022/11/20 00:35:28;;;;;;;21.63;13.48;;;-2.00;99.90;;;;;;5114739;27;20606;-67
2022/11/20 00:37:53;;;;;;;21.90;13.38;;;-2.00;99.90;;;;;;5114761;27;20031;-68
2022/11/20 00:40:19;;;;;;;21.25;14.38;;;-1.90;99.90;;;;;;5114652;27;20047;-68
2022/11/20 00:42:44;;;;;;;24.92;14.77;;;-1.80;99.90;;;;;;5132857;27;20436;-67
2022/11/20 00:45:10;;;;;;;23.30;14.27;;;-1.80;99.90;;;;;;5114556;27;20073;-67
2022/11/20 00:47:36;;;;;;;18.45;11.18;;;-1.80;99.90;;;;;;5114382;27;20096;-67
2022/11/20 00:50:02;;;;;;;21.50;12.40;;;-1.70;99.90;;;;;;5114591;27;20438;-67
2022/11/20 00:52:27;;;;;;;19.85;11.43;;;-1.70;99.90;;;;;;5096824;27;20058;-68
2022/11/20 00:54:53;;;;;;;17.63;11.68;;;-1.70;99.90;;;;;;5114435;27;20035;-66
2022/11/20 00:57:18;;;;;;;18.08;10.63;;;-1.60;99.90;;;;;;5114365;27;20062;-67
2022/11/20 00:59:44;;;;;;;16.02;11.15;;;-1.60;99.90;;;;;;5114018;27;20111;-67
2022/11/20 01:02:10;;;;;;;16.35;10.82;;;-1.60;99.90;;;;;;5097191;27;20035;-66
2022/11/20 01:04:35;;;;;;;15.73;10.07;;;-1.60;99.90;;;;;;5113945;27;20421;-67
2022/11/20 01:07:01;;;;;;;14.57;10.05;;;-1.60;99.90;;;;;;5111959;27;20035;-67
2022/11/20 01:09:26;;;;;;;15.50;9.75;;;-1.60;99.90;;;;;;5103552;28;20028;-66
2022/11/20 01:11:52;;;;;;;13.70;9.38;;;-1.50;99.90;;;;;;5113461;27;20066;-66
2022/11/20 01:14:19;;;;;;;16.45;10.10;;;-1.50;99.90;;;;;;5112679;27;20094;-67
2022/11/20 01:16:51;;;;;;;14.45;10.45;;;-1.60;99.90;;;;;;5096194;27;20065;-66
2022/11/20 01:19:22;;;;;;;16.67;10.15;;;-1.60;99.90;;;;;;5113907;27;20047;-67
2022/11/20 01:21:51;;;;;;;16.40;10.65;;;-1.70;99.90;;;;;;5113791;27;20525;-67
2022/11/20 01:24:19;;;;;;;15.88;10.43;;;-1.70;99.90;;;;;;5113472;27;20167;-68
2022/11/20 01:26:48;;;;;;;17.05;9.70;;;-1.60;99.90;;;;;;5113247;27;20046;-67
2022/11/20 01:29:16;;;;;;;17.00;10.73;;;-1.50;99.90;;;;;;5113661;27;20043;-67
2022/11/20 01:31:43;;;;;;;15.55;9.45;;;-1.50;99.90;;;;;;5113335;27;20023;-67
2022/11/20 01:34:14;;;;;;;15.15;9.75;;;-1.40;99.90;;;;;;5113302;27;20035;-67
2022/11/20 01:36:41;;;;;;;16.58;10.57;;;-1.40;99.90;;;;;;5113095;27;20420;-67
2022/11/20 01:39:15;;;;;;;14.73;9.90;;;-1.40;99.90;;;;;;5111933;27;20133;-66
2022/11/20 01:44:45;;;;;;;15.23;10.00;;;-1.40;99.90;;;;;;5113142;27;20047;-66
2022/11/20 01:47:14;;;;;;;15.80;9.57;;;-1.30;99.90;;;;;;5096505;27;20122;-67
2022/11/20 01:49:48;;;;;;;15.10;9.90;;;-1.30;99.90;;;;;;5113140;27;20088;-67
2022/11/20 01:52:19;;;;;;;14.90;9.65;;;-1.30;99.90;;;;;;5113227;27;20035;-67
2022/11/20 01:55:03;;;;;;;17.33;10.63;;;-1.30;99.90;;;;;;5113323;27;20035;-67
2022/11/20 01:57:31;;;;;;;14.07;9.10;;;-1.30;99.90;;;;;;5113150;28;20059;-67
2022/11/20 02:00:05;;;;;;;15.23;10.20;;;-1.30;99.90;;;;;;5113205;27;20464;-67
2022/11/20 02:02:31;;;;;;;13.70;9.30;;;-1.30;99.90;;;;;;5096755;27;20126;-67
2022/11/20 02:05:02;;;;;;;15.95;11.13;;;-1.30;99.90;;;;;;5112981;28;20037;-67
2022/11/20 02:07:29;;;;;;;17.30;9.88;;;-1.30;99.90;;;;;;5113401;28;20477;-68
2022/11/20 02:09:54;;;;;;;13.38;9.40;;;-1.30;99.90;;;;;;5112890;28;20035;-68
2022/11/20 02:15:04;;;;;;;15.80;10.48;;;-1.20;99.90;;;;;;5112642;28;20035;-67
2022/11/20 02:17:30;;;;;;;15.38;9.82;;;-1.20;99.90;;;;;;5113284;28;20335;-68
2022/11/20 02:19:56;;;;;;;15.80;10.68;;;-1.10;99.90;;;;;;5113167;27;20038;-68
2022/11/20 02:22:30;;;;;;;14.40;10.00;;;-1.10;99.90;;;;;;5095953;28;20061;-67
2022/11/20 02:24:58;;;;;;;16.67;10.57;;;-1.10;99.90;;;;;;5114338;27;20047;-67
2022/11/20 02:27:25;;;;;;;15.30;10.43;;;-1.10;99.90;;;;;;5100123;27;20043;-67
2022/11/20 02:29:53;;;;;;;15.75;10.25;;;-1.10;99.90;;;;;;5116935;27;20374;-68
2022/11/20 02:32:20;;;;;;;14.20;9.77;;;-1.10;99.90;;;;;;5117324;27;20043;-67
2022/11/20 02:34:46;;;;;;;17.33;10.45;;;-1.10;99.90;;;;;;5116943;27;20043;-67
2022/11/20 02:37:12;;;;;;;17.73;11.35;;;-1.10;99.90;;;;;;5116634;27;20204;-66
2022/11/20 02:39:39;;;;;;;16.92;11.20;;;-1.10;99.90;;;;;;5117297;27;20046;-67
2022/11/20 02:42:04;;;;;;;16.77;10.57;;;-1.10;99.90;;;;;;5116961;27;20046;-67
2022/11/20 02:44:30;;;;;;;17.40;10.68;;;-1.10;99.90;;;;;;5116736;27;20047;-67
2022/11/20 02:46:58;;;;;;;16.13;9.60;;;-1.10;99.90;;;;;;5116616;27;20092;-68
2022/11/20 02:49:24;;;;;;;16.08;10.43;;;-1.10;99.90;;;;;;5116962;27;20035;-67
2022/11/20 02:51:50;;;;;;;15.48;10.20;;;-1.10;99.90;;;;;;5116880;27;20027;-67
2022/11/20 02:54:16;;;;;;;17.02;10.60;;;-1.10;99.90;;;;;;5116636;27;20043;-67
2022/11/20 02:56:41;;;;;;;16.65;9.77;;;-1.10;99.90;;;;;;5116454;27;20039;-68
2022/11/20 02:59:07;;;;;;;14.90;9.32;;;-1.20;99.90;;;;;;5110212;27;20046;-68
2022/11/20 03:01:33;;;;;;;15.80;10.27;;;-1.20;99.90;;;;;;5116252;27;20035;-67
2022/11/20 03:03:58;;;;;;;15.82;10.35;;;-1.20;99.90;;;;;;5116106;27;20043;-67
2022/11/20 03:06:24;;;;;;;16.75;9.70;;;-1.20;99.90;;;;;;5114879;27;20179;-68
2022/11/20 03:08:50;;;;;;;14.38;9.73;;;-1.20;99.90;;;;;;5116680;27;20087;-67
2022/11/20 03:11:16;;;;;;;16.30;10.50;;;-1.20;99.90;;;;;;5116018;27;20050;-67
2022/11/20 03:13:42;;;;;;;14.77;10.10;;;-1.20;99.90;;;;;;5116485;27;20497;-67
2022/11/20 03:16:11;;;;;;;16.15;10.52;;;-1.20;99.90;;;;;;5115764;27;20039;-68
2022/11/20 03:18:37;;;;;;;15.70;10.77;;;-1.20;99.90;;;;;;5115296;27;20039;-68
2022/11/20 03:21:03;;;;;;;15.27;10.52;;;-1.20;99.90;;;;;;5116224;27;20043;-67
2022/11/20 03:23:31;;;;;;;17.25;10.80;;;-1.20;99.90;;;;;;5134219;27;20039;-67
2022/11/20 03:26:27;;;;;;;15.00;10.60;;;-1.10;99.90;;;;;;5116198;27;20026;-67
2022/11/20 03:28:58;;;;;;;14.25;10.32;;;-1.10;99.90;;;;;;5114283;27;20043;-67
2022/11/20 03:31:26;;;;;;;16.10;10.82;;;-1.00;99.90;;;;;;5115646;27;20034;-67
2022/11/20 03:33:52;;;;;;;16.75;10.95;;;-1.00;99.90;;;;;;5115806;27;20042;-67
2022/11/20 03:36:19;;;;;;;14.48;10.05;;;-1.00;99.90;;;;;;5114872;27;20047;-67
2022/11/20 03:38:46;;;;;;;14.95;10.23;;;-1.00;99.90;;;;;;5115728;27;20147;-67
2022/11/20 03:41:17;;;;;;;15.82;10.05;;;-1.00;99.90;;;;;;5115893;27;20031;-67
2022/11/20 03:43:50;;;;;;;17.40;10.30;;;-1.00;99.90;;;;;;5133878;27;20042;-67
2022/11/20 03:46:16;;;;;;;15.25;10.00;;;-1.00;99.90;;;;;;5115794;27;20493;-66
2022/11/20 03:48:42;;;;;;;14.45;10.10;;;-0.90;99.90;;;;;;5098585;27;20037;-66
2022/11/20 03:51:13;;;;;;;14.88;10.65;;;-0.90;99.90;;;;;;5115921;27;20489;-68
2022/11/20 03:53:40;;;;;;;14.98;10.07;;;-0.90;99.90;;;;;;5115427;27;20027;-67
2022/11/20 03:56:07;;;;;;;15.48;10.80;;;-0.80;99.90;;;;;;5115530;27;20043;-67
2022/11/20 03:58:37;;;;;;;14.18;9.75;;;-0.80;99.90;;;;;;5112509;28;20101;-67
2022/11/20 04:01:13;;;;;;;17.40;10.10;;;-0.80;99.90;;;;;;5115385;27;20035;-67
2022/11/20 04:03:40;;;;;;;16.00;9.98;;;-0.80;99.90;;;;;;5115377;27;20393;-67
2022/11/20 04:06:13;;;;;;;15.27;10.63;;;-0.80;99.90;;;;;;5115499;27;20523;-67
2022/11/20 04:08:40;;;;;;;16.63;10.43;;;-0.90;99.90;;;;;;5113447;27;20532;-67
2022/11/20 04:11:08;;;;;;;14.82;10.30;;;-0.90;99.90;;;;;;5115181;27;20134;-67
2022/11/20 04:13:34;;;;;;;13.52;9.73;;;-0.90;99.90;;;;;;5098161;27;20027;-67
2022/11/20 04:15:59;;;;;;;15.13;10.13;;;-0.90;99.90;;;;;;5115502;27;20088;-67
2022/11/20 04:18:25;;;;;;;15.52;10.30;;;-0.90;99.90;;;;;;5114990;27;20039;-66
2022/11/20 04:20:51;;;;;;;13.32;9.55;;;-1.00;99.90;;;;;;5114992;27;20099;-67
2022/11/20 04:23:16;;;;;;;14.95;10.10;;;-1.00;99.90;;;;;;5115000;27;20084;-67
2022/11/20 04:25:42;;;;;;;14.07;9.85;;;-1.00;99.90;;;;;;5114844;27;20054;-67
2022/11/20 04:28:07;;;;;;;14.48;9.93;;;-0.90;99.90;;;;;;5115320;27;20050;-66
2022/11/20 04:30:33;;;;;;;14.50;9.77;;;-1.00;99.90;;;;;;5114652;27;20046;-67
2022/11/20 04:32:59;;;;;;;14.48;9.68;;;-0.90;99.90;;;;;;5114825;27;20063;-67
2022/11/20 04:35:24;;;;;;;15.95;10.35;;;-0.90;99.90;;;;;;5114508;27;20043;-67
2022/11/20 04:37:53;;;;;;;13.77;9.57;;;-0.90;99.90;;;;;;5114748;27;20088;-67
2022/11/20 04:40:18;;;;;;;15.07;10.23;;;-0.90;99.90;;;;;;5115035;27;20068;-68
2022/11/20 04:42:44;;;;;;;14.52;10.23;;;-0.90;99.90;;;;;;5114498;27;20039;-67
2022/11/20 04:45:10;;;;;;;14.15;10.13;;;-1.00;99.90;;;;;;5114637;27;20070;-67
2022/11/20 04:47:35;;;;;;;14.98;9.85;;;-1.10;99.90;;;;;;5114541;27;20115;-68
2022/11/20 04:50:01;;;;;;;16.73;11.15;;;-1.10;99.90;;;;;;5108894;27;20038;-68
2022/11/20 04:52:26;;;;;;;15.32;10.65;;;-1.10;99.90;;;;;;5113821;27;20088;-68
2022/11/20 04:54:53;;;;;;;15.57;9.52;;;-1.10;99.90;;;;;;5114098;27;20042;-67
2022/11/20 04:57:19;;;;;;;13.60;10.13;;;-1.00;99.90;;;;;;5111064;27;20055;-68
2022/11/20 04:59:44;;;;;;;15.85;10.25;;;-1.00;99.90;;;;;;5096876;27;20038;-67
2022/11/20 05:02:10;;;;;;;14.43;9.55;;;-1.00;99.90;;;;;;5097159;27;20039;-67
2022/11/20 05:04:36;;;;;;;15.32;10.25;;;-0.90;99.90;;;;;;5114035;27;20405;-68
2022/11/20 05:07:02;;;;;;;13.27;9.80;;;-0.90;99.90;;;;;;5113765;27;20074;-68
2022/11/20 05:09:28;;;;;;;16.10;10.57;;;-0.90;99.90;;;;;;5113583;27;20066;-67
2022/11/20 05:11:54;;;;;;;16.45;10.68;;;-0.80;99.90;;;;;;5114101;27;20444;-67
2022/11/20 05:14:19;;;;;;;16.30;11.35;;;-0.80;99.90;;;;;;5096843;27;20049;-67
2022/11/20 05:16:45;;;;;;;16.65;10.50;;;-0.90;99.90;;;;;;5113891;27;22542;-67
2022/11/20 05:19:10;;;;;;;16.63;10.35;;;-0.90;99.90;;;;;;5112131;27;20042;-67
2022/11/20 05:21:36;;;;;;;15.60;10.43;;;-0.90;99.90;;;;;;5113522;27;20464;-67
2022/11/20 05:24:02;;;;;;;17.42;11.40;;;-0.90;99.90;;;;;;5113874;27;20043;-67
2022/11/20 05:26:27;;;;;;;14.95;10.10;;;-1.00;99.90;;;;;;5113815;27;20067;-68
2022/11/20 05:28:53;;;;;;;15.20;10.52;;;-1.00;99.90;;;;;;5110944;27;20031;-67
2022/11/20 05:31:23;;;;;;;13.52;9.77;;;-1.00;99.90;;;;;;5113763;27;20062;-67
2022/11/20 05:33:49;;;;;;;14.10;9.98;;;-1.00;99.90;;;;;;5113749;27;20079;-67
2022/11/20 05:36:16;;;;;;;17.83;11.00;;;-1.10;99.90;;;;;;5113627;27;20143;-67
2022/11/20 05:38:42;;;;;;;16.30;10.85;;;-1.10;99.90;;;;;;5113779;27;20057;-67
2022/11/20 05:41:13;;;;;;;14.30;10.07;;;-1.10;99.90;;;;;;5113422;27;20164;-68
2022/11/20 05:43:41;;;;;;;15.30;10.75;;;-1.10;99.90;;;;;;5113412;27;20525;-67
2022/11/20 05:46:08;;;;;;;14.77;10.48;;;-1.10;99.90;;;;;;5113357;27;20042;-67
2022/11/20 05:48:35;;;;;;;16.55;10.25;;;-1.10;99.90;;;;;;5113178;27;20070;-68
2022/11/20 05:51:03;;;;;;;18.02;10.98;;;-1.20;99.90;;;;;;5110525;28;20169;-67
2022/11/20 05:53:29;;;;;;;16.10;10.32;;;-1.20;99.90;;;;;;5113368;27;20055;-67
2022/11/20 05:56:04;;;;;;;19.08;10.55;;;-1.20;99.90;;;;;;5113254;28;20039;-67
2022/11/20 05:58:31;;;;;;;16.88;10.55;;;-1.20;99.90;;;;;;5113049;27;20047;-67
2022/11/20 06:01:09;;;;;;;15.40;10.55;;;-1.10;99.90;;;;;;5112814;28;20439;-67
2022/11/20 06:03:35;;;;;;;15.05;10.88;;;-1.20;99.90;;;;;;5113440;27;20039;-67
2022/11/20 06:06:01;;;;;;;17.48;10.85;;;-1.30;99.90;;;;;;5095917;27;20042;-68
2022/11/20 06:08:27;;;;;;;15.93;10.38;;;-1.30;99.90;;;;;;5113162;28;20039;-67
2022/11/20 06:10:52;;;;;;;17.40;11.32;;;-1.20;99.90;;;;;;5113093;28;20035;-67
2022/11/20 06:13:18;;;;;;;16.83;11.43;;;-1.20;99.90;;;;;;5096206;28;20042;-67
2022/11/20 06:15:52;;;;;;;16.55;11.18;;;-1.10;99.90;;;;;;5112950;28;20039;-67
2022/11/20 06:18:18;;;;;;;15.70;11.00;;;-1.10;99.90;;;;;;5096478;28;20118;-68
2022/11/20 06:20:44;;;;;;;19.02;10.63;;;-1.20;99.90;;;;;;5113061;28;20112;-67
2022/11/20 06:23:10;;;;;;;16.27;11.80;;;-1.10;99.90;;;;;;5113000;28;20074;-67
2022/11/20 06:25:40;;;;;;;17.23;11.35;;;-1.10;99.90;;;;;;5112982;28;20051;-68
2022/11/20 06:28:06;;;;;;;16.65;11.02;;;-1.10;99.90;;;;;;5095885;28;20039;-68
2022/11/20 06:30:32;;;;;;;16.50;11.77;;;-1.10;99.90;;;;;;5112845;28;20067;-67
2022/11/20 06:32:58;;;;;;;17.67;11.52;;;-1.10;99.90;;;;;;5112963;28;20555;-67
2022/11/20 06:35:23;;;;;;;15.98;11.30;;;-1.20;99.90;;;;;;5095815;28;20059;-67
2022/11/20 06:37:49;;;;;;;15.80;11.00;;;-1.20;99.90;;;;;;5112829;28;20047;-68
2022/11/20 06:40:15;;;;;;;19.02;11.68;;;-1.10;99.90;;;;;;5128129;28;20456;-67
2022/11/20 06:42:40;;;;;;;17.85;11.52;;;-1.10;99.90;;;;;;5110547;28;20405;-67
2022/11/20 06:45:06;;;;;;;16.70;11.45;;;-1.10;99.90;;;;;;5112186;28;20076;-67
2022/11/20 06:47:33;;;;;;;17.45;11.60;;;-1.00;99.90;;;;;;5109003;28;20063;-67
2022/11/20 06:49:58;;;;;;;17.00;10.95;;;-1.00;99.90;;;;;;5110569;28;20044;-68
2022/11/20 06:52:24;;;;;;;18.27;11.48;;;-1.00;99.90;;;;;;5112459;28;20042;-68
2022/11/20 06:54:50;;;;;;;16.83;11.45;;;-1.00;99.90;;;;;;5095612;28;20099;-68
2022/11/20 06:57:15;;;;;;;18.58;11.43;;;-1.00;99.90;;;;;;5112266;28;20047;-68
2022/11/20 06:59:41;;;;;;;19.38;12.07;;;-0.90;99.90;;;;;;5112307;28;20047;-67
2022/11/20 07:02:12;;;;;;;19.40;11.65;;;-0.90;99.90;;;;;;5112408;28;20043;-68
2022/11/20 07:04:38;;;;;;;18.50;11.52;;;-0.80;99.90;;;;;;5112538;28;20035;-67
2022/11/20 07:07:04;;;;;;;18.80;12.20;;;-0.80;99.90;;;;;;5112549;28;20031;-67
2022/11/20 07:09:29;;;;;;;18.52;11.63;;;-0.70;99.90;;;;;;5130734;28;20050;-67
2022/11/20 07:11:55;;;;;;;21.02;12.25;;;-0.70;99.90;;;;;;5095137;27;20070;-67
2022/11/20 07:14:21;;;;;;;17.08;11.65;;;-0.70;99.90;;;;;;5116453;27;20511;-68
2022/11/20 07:16:46;;;;;;;18.13;11.30;;;-0.70;99.90;;;;;;5116459;27;20083;-67
2022/11/20 07:19:12;;;;;;;18.50;11.40;;;-0.70;99.90;;;;;;5116442;27;20107;-67
2022/11/20 07:21:37;;;;;;;18.02;11.00;;;-0.70;99.90;;;;;;5116454;27;20038;-67
2022/11/20 07:24:03;;;;;;;17.95;11.15;;;-0.70;99.90;;;;;;5115898;27;20054;-67
2022/11/20 07:26:29;;;;;;;15.05;10.80;;;-0.70;99.90;;;;;;5116139;27;20401;-68
2022/11/20 07:28:54;;;;;;;18.58;12.15;;;-0.60;99.90;;;;;;5116351;27;20039;-67
2022/11/20 07:31:20;;;;;;;17.95;10.77;;;-0.50;99.90;;;;;;5116079;27;20035;-68
2022/11/20 07:33:46;;;;;;;17.50;12.23;;;-0.50;99.90;;;;;;5116018;27;20047;-67
2022/11/20 07:36:12;;;;;;;16.88;11.32;;;-0.50;99.90;;;;;;5115772;27;20039;-67
2022/11/20 07:38:37;;;;;;;21.58;12.98;;;-0.50;99.90;;;;;;5115882;27;20396;-67
2022/11/20 07:41:03;;;;;;;26.48;16.33;;;-0.60;99.90;;;;;;5115710;27;20524;-68
2022/11/20 07:43:29;;;;;;;18.55;12.05;;;-0.60;99.90;;;;;;5098080;27;20043;-67
2022/11/20 07:45:56;;;;;;;16.30;11.85;;;-0.60;99.90;;;;;;5115955;27;20060;-68
2022/11/20 07:48:23;;;;;;;17.35;11.90;;;-0.50;99.90;;;;;;5115657;27;20393;-67
2022/11/20 07:50:48;;;;;;;17.80;11.85;;;-0.50;99.90;;;;;;5115918;27;20092;-67
2022/11/20 07:53:16;;;;;;;19.58;12.05;;;-0.50;99.90;;;;;;5115406;27;20043;-67
2022/11/20 07:55:42;;;;;;;17.77;12.13;;;-0.50;99.90;;;;;;5115492;27;20484;-67
2022/11/20 07:58:07;;;;;;;16.13;11.38;;;-0.40;99.90;;;;;;5115137;27;20043;-67
2022/11/20 08:00:33;;;;;;;17.20;11.30;;;-0.50;99.90;;;;;;5115748;27;20378;-67
2022/11/20 08:02:58;;;;;;;17.23;11.30;;;-0.50;99.90;;;;;;5115670;27;20043;-67
2022/11/20 08:05:24;;;;;;;18.98;11.88;;;-0.50;99.90;;;;;;5097899;27;20051;-68
2022/11/20 08:07:50;;;;;;;16.20;10.50;;;-0.60;99.90;;;;;;5115775;27;20027;-67
2022/11/20 08:10:16;;;;;;;17.77;11.70;;;-0.50;99.90;;;;;;5115117;27;20204;-67
2022/11/20 08:15:38;;;;;;;17.80;10.57;;;-0.40;99.90;;;;;;5115048;27;20081;-67
2022/11/20 08:18:10;;;;;;;14.70;10.65;;;-0.40;99.90;;;;;;5115349;27;20043;-67
2022/11/20 08:20:36;;;;;;;16.80;11.30;;;-0.30;99.90;;;;;;5115015;27;20053;-66
2022/11/20 08:23:07;;;;;;;17.02;11.23;;;-0.20;99.90;;;;;;5114506;27;20031;-66
2022/11/20 08:25:34;;;;;;;14.75;10.13;;;-0.20;99.90;;;;;;5114759;27;20432;-67
2022/11/20 08:28:03;;;;;;;17.58;11.38;;;-0.20;99.90;;;;;;5114946;27;20461;-67
2022/11/20 08:30:30;;;;;;;17.15;11.32;;;-0.20;99.90;;;;;;5114733;27;20042;-66
2022/11/20 08:33:01;;;;;;;18.15;11.52;;;-0.20;99.90;;;;;;5110311;27;20087;-67
2022/11/20 08:35:27;;;;;;;19.95;14.70;;;-0.20;99.90;;;;;;5113354;27;20473;-68
2022/11/20 08:37:52;;;;;;;18.70;12.35;;;-0.30;99.90;;;;;;5114830;27;20163;-67
2022/11/20 08:40:18;;;;;;;17.13;11.13;;;-0.20;99.90;;;;;;5097204;27;20099;-66
2022/11/20 08:42:48;;;;;;;19.45;12.02;;;-0.20;99.90;;;;;;5114388;27;20477;-67
2022/11/20 08:45:14;;;;;;;18.38;12.52;;;-0.10;99.90;;;;;;5114630;27;20051;-68
2022/11/20 08:47:41;;;;;;;17.25;11.85;;;-0.20;99.90;;;;;;5097314;27;20031;-67
2022/11/20 08:50:07;;;;;;;18.73;11.50;;;-0.20;99.90;;;;;;5111591;27;20031;-66
2022/11/20 08:52:33;;;;;;;17.00;11.75;;;-0.20;99.90;;;;;;5113942;27;20039;-67
2022/11/20 08:54:59;;;;;;;38.40;25.13;;;-0.30;99.90;;;;;;5114477;27;20392;-67
2022/11/20 08:57:24;;;;;;;15.32;11.25;;;-0.30;99.90;;;;;;5114068;27;20063;-67
2022/11/20 08:59:50;;;;;;;18.00;11.15;;;-0.30;99.90;;;;;;5114085;27;20043;-66
2022/11/20 09:02:15;;;;;;;16.95;11.57;;;-0.20;99.90;;;;;;5114071;27;20047;-67
2022/11/20 09:04:41;;;;;;;15.90;11.20;;;-0.10;99.90;;;;;;5113464;27;20035;-67
2022/11/20 09:07:06;;;;;;;14.48;10.88;;;0.00;99.90;;;;;;5114368;27;20031;-66
2022/11/20 09:09:32;;;;;;;16.50;10.95;;;0.20;99.90;;;;;;5113966;27;20118;-67
2022/11/20 09:11:58;;;;;;;15.95;11.25;;;0.50;99.90;;;;;;5097022;27;20126;-67
2022/11/20 09:14:29;;;;;;;15.77;10.27;;;0.70;99.90;;;;;;5114044;27;20051;-67
2022/11/20 09:16:57;;;;;;;16.20;10.60;;;0.90;99.90;;;;;;5114073;27;20047;-68
2022/11/20 09:19:26;;;;;;;16.55;10.77;;;0.90;99.90;;;;;;5096956;27;20545;-67
2022/11/20 09:21:52;;;;;;;15.23;10.40;;;1.10;99.90;;;;;;5114083;27;20449;-67
2022/11/20 09:24:18;;;;;;;16.00;11.50;;;1.30;99.90;;;;;;5113890;27;20071;-66
2022/11/20 09:26:44;;;;;;;15.98;11.10;;;1.50;99.90;;;;;;5113638;27;20069;-67
2022/11/20 09:29:10;;;;;;;15.00;10.98;;;1.80;99.90;;;;;;5113761;27;20035;-66
2022/11/20 09:31:36;;;;;;;14.25;10.52;;;2.00;99.90;;;;;;5113585;27;20096;-67
2022/11/20 09:34:01;;;;;;;16.20;11.00;;;2.20;99.90;;;;;;5112918;27;20039;-66
2022/11/20 09:36:27;;;;;;;16.15;10.77;;;2.50;99.90;;;;;;5113601;27;20043;-68
2022/11/20 09:38:53;;;;;;;16.00;11.30;;;2.70;99.90;;;;;;5113329;27;20043;-67
2022/11/20 09:41:50;;;;;;;14.00;10.52;;;2.80;99.90;;;;;;5096193;27;20141;-68
2022/11/20 09:44:50;;;;;;;15.52;11.20;;;3.10;99.90;;;;;;5096321;27;20123;-66
2022/11/20 09:47:43;;;;;;;14.77;10.80;;;3.40;99.90;;;;;;5113499;27;20046;-68
2022/11/20 09:50:32;;;;;;;15.45;10.85;;;3.80;99.90;;;;;;5113360;27;20081;-68
2022/11/20 09:53:12;;;;;;;15.45;11.38;;;4.10;99.90;;;;;;5113685;27;20039;-67
2022/11/20 09:55:39;;;;;;;14.73;10.80;;;4.30;99.90;;;;;;5113217;27;20485;-67
2022/11/20 09:58:24;;;;;;;14.95;10.63;;;4.50;99.90;;;;;;5092818;28;20047;-67
2022/11/20 10:00:52;;;;;;;14.13;10.32;;;4.70;99.90;;;;;;5093103;28;20532;-68
2022/11/20 10:03:42;;;;;;;12.73;9.68;;;4.90;99.90;;;;;;5110068;28;20074;-68
2022/11/20 10:06:14;;;;;;;13.05;9.45;;;5.10;99.90;;;;;;5031356;28;20127;-67
2022/11/20 10:08:54;;;;;;;14.00;9.27;;;5.20;99.90;;;;;;5031446;28;20088;-68
2022/11/20 10:11:53;;;;;;;14.85;9.52;;;5.30;99.90;;;;;;5027801;28;20103;-68
2022/11/20 10:14:49;;;;;;;11.80;9.00;;;5.50;99.90;;;;;;5026440;28;20044;-68
2022/11/20 10:17:42;;;;;;;13.38;9.48;;;5.70;99.90;;;;;;5031664;28;20065;-68
2022/11/20 10:20:14;;;;;;;14.48;8.80;;;5.80;99.90;;;;;;5031333;28;20037;-68
2022/11/20 10:23:01;;;;;;;11.80;8.95;;;5.80;99.90;;;;;;5029316;28;20036;-67
2022/11/20 10:25:43;;;;;;;13.57;9.45;;;6.00;99.90;;;;;;5030460;28;20107;-67
2022/11/20 10:28:38;;;;;;;12.85;8.70;;;6.00;99.90;;;;;;5030963;28;20128;-68
2022/11/20 10:31:11;;;;;;;11.38;9.00;;;6.20;99.90;;;;;;5045446;28;20049;-68
2022/11/20 10:33:38;;;;;;;;;;;6.20;99.90;;;;;;5031583;28;20131;-69
2022/11/20 10:36:20;;;;;;;10.05;7.85;;;6.20;99.90;;;;;;5047758;28;19952;-68
2022/11/20 10:38:59;;;;;;;11.10;8.55;;;6.20;99.90;;;;;;5031235;28;20083;-68
2022/11/20 10:41:30;;;;;;;11.73;8.48;;;6.30;99.90;;;;;;5030874;28;20124;-68
2022/11/20 10:45:00;;;;;;;10.13;8.15;;;6.40;99.90;;;;;;5090972;28;20073;-68
2022/11/20 10:47:12;;;;;;;11.23;8.52;;;6.50;99.90;;;;;;5112709;28;20044;-68
2022/11/20 10:49:37;;;;;;;11.45;8.32;;;6.40;99.90;;;;;;5113301;28;20106;-68
2022/11/20 10:52:19;;;;;;;12.88;7.97;;;6.20;99.90;;;;;;5113175;28;20255;-68
2022/11/20 10:55:02;;;;;;;11.75;8.80;;;6.10;99.90;;;;;;5093227;28;20060;-67
2022/11/20 10:57:46;;;;;;;12.82;10.30;;;5.90;99.90;;;;;;5113043;28;20161;-68
2022/11/20 11:00:13;;;;;;;11.60;9.38;;;5.60;99.90;;;;;;5113531;28;20082;-67
2022/11/20 11:02:41;;;;;;;11.55;8.70;;;5.30;99.90;;;;;;5113250;28;20461;-68
2022/11/20 11:05:13;;;;;;;13.48;9.43;;;5.20;99.90;;;;;;5095871;28;20043;-68
2022/11/20 11:07:39;;;;;;;11.90;8.68;;;5.00;99.90;;;;;;5113033;28;20056;-68
2022/11/20 11:10:22;;;;;;;12.52;8.65;;;4.80;99.90;;;;;;5112954;28;20107;-68
2022/11/20 11:12:48;;;;;;;11.32;8.70;;;4.70;99.90;;;;;;5095910;28;20134;-68
2022/11/20 11:15:26;;;;;;;12.55;9.27;;;4.60;99.90;;;;;;5114209;28;20071;-67
2022/11/20 11:17:52;;;;;;;11.10;8.45;;;4.50;99.90;;;;;;5112746;28;20038;-67
2022/11/20 11:20:21;;;;;;;9.85;7.65;;;4.30;99.90;;;;;;5112618;28;20478;-67
2022/11/20 11:22:57;;;;;;;10.55;7.82;;;4.30;99.90;;;;;;5113133;28;20163;-66
2022/11/20 11:25:23;;;;;;;13.05;8.10;;;4.30;99.90;;;;;;5112669;28;20050;-67
2022/11/20 11:27:51;;;;;;;11.15;8.70;;;4.30;99.90;;;;;;5113019;28;20039;-67
2022/11/20 11:30:19;;;;;;;11.48;8.43;;;4.20;99.90;;;;;;5095629;28;20040;-68
2022/11/20 11:32:45;;;;;;;11.38;8.18;;;4.20;99.90;;;;;;5112571;28;20036;-67
2022/11/20 11:35:19;;;;;;;10.52;8.02;;;4.20;99.90;;;;;;5112473;28;20043;-67
2022/11/20 11:37:46;;;;;;;10.27;7.70;;;4.10;99.90;;;;;;5112589;28;20386;-67
2022/11/20 11:40:13;;;;;;;10.88;8.75;;;4.10;99.90;;;;;;5112468;28;20448;-67
2022/11/20 11:42:53;;;;;;;10.45;8.07;;;4.00;99.90;;;;;;5112719;28;20443;-67
2022/11/20 11:45:19;;;;;;;10.65;7.82;;;3.90;99.90;;;;;;5112142;28;20405;-67
2022/11/20 11:47:47;;;;;;;11.02;8.52;;;3.90;99.90;;;;;;5112926;28;20043;-67
2022/11/20 11:50:20;;;;;;;11.80;8.48;;;3.80;99.90;;;;;;5094996;28;20494;-67
2022/11/20 11:53:21;;;;;;;10.38;8.43;;;4.10;99.90;;;;;;5112658;28;20545;-67
2022/11/20 11:55:50;;;;;;;11.00;8.00;;;4.40;99.90;;;;;;5112511;28;20504;-67
2022/11/20 11:58:27;;;;;;;11.25;8.02;;;4.60;99.90;;;;;;5111185;28;20892;-68
2022/11/20 12:01:03;;;;;;;11.73;7.82;;;4.70;99.90;;;;;;5112097;28;20192;-68
2022/11/20 12:03:38;;;;;;;10.10;7.78;;;4.80;99.90;;;;;;5112008;28;20043;-67
2022/11/20 12:06:13;;;;;;;10.93;7.80;;;5.60;99.90;;;;;;5094546;28;20379;-67
2022/11/20 12:09:01;;;;;;;11.13;7.30;;;5.30;99.90;;;;;;5111917;28;20039;-68
2022/11/20 12:11:36;;;;;;;12.70;8.02;;;4.90;99.80;;;;;;5109453;28;20031;-67
2022/11/20 12:14:19;;;;;;;9.43;7.90;;;4.60;99.90;;;;;;5106832;28;20035;-67
2022/11/20 12:16:45;;;;;;;31.27;18.10;;;4.30;99.90;;;;;;5111233;28;20126;-68
2022/11/20 12:19:13;;;;;;;11.05;9.13;;;4.10;99.90;;;;;;5094221;28;20047;-68
2022/11/20 12:22:00;;;;;;;11.15;8.93;;;4.00;99.90;;;;;;5109728;28;20043;-66
2022/11/20 12:25:12;;;;;;;11.35;8.52;;;3.90;99.90;;;;;;5111531;28;20039;-67
2022/11/20 12:28:00;;;;;;;10.07;8.13;;;3.90;99.90;;;;;;5036357;28;20029;-67
2022/11/20 12:30:26;;;;;;;11.30;8.20;;;3.80;99.90;;;;;;5035977;28;20079;-68
2022/11/20 12:33:05;;;;;;;11.18;8.15;;;3.80;99.90;;;;;;5052615;28;20049;-67
2022/11/20 12:35:49;;;;;;;13.75;8.57;;;3.80;99.90;;;;;;5036436;28;20597;-67
2022/11/20 12:38:26;;;;;;;13.70;8.60;;;3.70;99.90;;;;;;5052617;28;20048;-68
2022/11/20 12:41:03;;;;;;;12.77;8.70;;;3.70;99.90;;;;;;5053029;28;20041;-67
2022/11/20 12:46:32;;;;;;;14.88;9.13;;;3.50;99.90;;;;;;5052547;28;20569;-67
2022/11/20 12:49:36;;;;;;;11.88;8.93;;;3.40;99.90;;;;;;5052743;28;20032;-67
2022/11/20 12:52:29;;;;;;;13.43;9.68;;;3.40;99.90;;;;;;5012852;28;20045;-67
2022/11/20 12:55:12;;;;;;;13.55;9.88;;;3.40;99.90;;;;;;5012957;28;20091;-67
2022/11/20 12:58:09;;;;;;;13.77;9.52;;;3.30;99.90;;;;;;5019716;28;20080;-67